Terminal Aerodrome Forecast
Issued by NWS

Home | Current Version | Previous Version | Text Only | Print | Product List | Glossary On
Versions: 1 2 3 4 5 6 7 8 9 10 11 12 13 14
000
FTUS45 KBOI 192340
TAFTWF
TAF
KTWF 192340Z 2000/2024 27010G20KT P6SM BKN120 OVC150
     FM200200 27012G20KT P6SM VCSH OVC070
     FM200500 23012KT P6SM BKN100
     FM201800 27015G25KT P6SM SKC=

USA.gov is the U.S. government's official web portal to all federal, state and local government web resources and services.